sensor_id;sensor_type;location;lat;lon;timestamp;P1;durP1;ratioP1;P2;durP2;ratioP2
44664;SDS011;30382;48.802;9.388;2023-04-25T05:09:39;6.60;;;4.20;;
44664;SDS011;30382;48.802;9.388;2023-04-25T05:12:40;6.20;;;3.87;;
44664;SDS011;30382;48.802;9.388;2023-04-25T05:18:47;6.93;;;4.07;;
44664;SDS011;30382;48.802;9.388;2023-04-25T05:21:51;3.20;;;2.90;;
44664;SDS011;30382;48.802;9.388;2023-04-25T05:33:28;3.03;;;2.77;;
44664;SDS011;30382;48.802;9.388;2023-04-25T05:36:22;6.47;;;3.53;;
44664;SDS011;30382;48.802;9.388;2023-04-25T05:48:37;4.47;;;4.07;;
44664;SDS011;30382;48.802;9.388;2023-04-25T05:52:07;4.10;;;3.70;;
44664;SDS011;30382;48.802;9.388;2023-04-25T05:58:12;4.17;;;3.63;;
44664;SDS011;30382;48.802;9.388;2023-04-25T06:27:29;4.13;;;3.70;;
44664;SDS011;30382;48.802;9.388;2023-04-25T06:40:11;6.27;;;3.60;;
44664;SDS011;30382;48.802;9.388;2023-04-25T07:14:44;3.67;;;3.37;;
44664;SDS011;30382;48.802;9.388;2023-04-25T07:32:42;4.07;;;3.67;;
44664;SDS011;30382;48.802;9.388;2023-04-25T08:17:09;4.80;;;4.40;;
44664;SDS011;30382;48.802;9.388;2023-04-25T08:20:12;4.60;;;4.20;;
44664;SDS011;30382;48.802;9.388;2023-04-25T08:30:36;5.03;;;4.53;;
44664;SDS011;30382;48.802;9.388;2023-04-25T08:33:25;6.53;;;5.37;;
44664;SDS011;30382;48.802;9.388;2023-04-25T08:40:35;5.57;;;4.87;;
44664;SDS011;30382;48.802;9.388;2023-04-25T08:54:31;4.77;;;4.37;;
44664;SDS011;30382;48.802;9.388;2023-04-25T08:57:19;5.60;;;5.00;;
44664;SDS011;30382;48.802;9.388;2023-04-25T09:04:21;6.43;;;5.87;;
44664;SDS011;30382;48.802;9.388;2023-04-25T09:11:26;5.30;;;4.80;;
44664;SDS011;30382;48.802;9.388;2023-04-25T09:18:12;6.50;;;5.90;;
44664;SDS011;30382;48.802;9.388;2023-04-25T09:28:24;7.97;;;6.13;;
44664;SDS011;30382;48.802;9.388;2023-04-25T09:45:53;3.80;;;3.50;;
44664;SDS011;30382;48.802;9.388;2023-04-25T09:49:41;2.70;;;2.50;;
44664;SDS011;30382;48.802;9.388;2023-04-25T09:53:12;4.40;;;3.20;;
44664;SDS011;30382;48.802;9.388;2023-04-25T09:56:56;3.73;;;3.30;;
44664;SDS011;30382;48.802;9.388;2023-04-25T10:03:15;5.10;;;3.80;;
44664;SDS011;30382;48.802;9.388;2023-04-25T10:07:06;4.20;;;3.90;;
44664;SDS011;30382;48.802;9.388;2023-04-25T10:10:35;3.40;;;2.87;;
44664;SDS011;30382;48.802;9.388;2023-04-25T10:13:31;4.10;;;3.70;;
44664;SDS011;30382;48.802;9.388;2023-04-25T10:19:25;4.10;;;3.80;;
44664;SDS011;30382;48.802;9.388;2023-04-25T10:26:13;4.80;;;3.30;;
44664;SDS011;30382;48.802;9.388;2023-04-25T10:29:03;4.37;;;3.97;;
44664;SDS011;30382;48.802;9.388;2023-04-25T10:35:42;4.53;;;3.60;;
44664;SDS011;30382;48.802;9.388;2023-04-25T10:42:01;1.37;;;1.27;;
44664;SDS011;30382;48.802;9.388;2023-04-25T10:48:57;2.87;;;2.23;;
44664;SDS011;30382;48.802;9.388;2023-04-25T10:51:51;4.77;;;4.37;;
44664;SDS011;30382;48.802;9.388;2023-04-25T10:54:59;2.73;;;2.03;;
44664;SDS011;30382;48.802;9.388;2023-04-25T10:58:12;2.93;;;2.57;;
44664;SDS011;30382;48.802;9.388;2023-04-25T11:06:51;4.03;;;2.93;;
44664;SDS011;30382;48.802;9.388;2023-04-25T11:12:37;4.50;;;4.10;;
44664;SDS011;30382;48.802;9.388;2023-04-25T11:15:22;3.97;;;3.60;;
44664;SDS011;30382;48.802;9.388;2023-04-25T11:21:30;3.83;;;3.43;;
44664;SDS011;30382;48.802;9.388;2023-04-25T11:24:16;4.90;;;4.37;;
44664;SDS011;30382;48.802;9.388;2023-04-25T11:27:14;4.87;;;4.37;;
44664;SDS011;30382;48.802;9.388;2023-04-25T11:33:05;3.27;;;2.97;;
44664;SDS011;30382;48.802;9.388;2023-04-25T11:35:53;3.10;;;2.70;;
44664;SDS011;30382;48.802;9.388;2023-04-25T11:39:03;3.10;;;2.80;;
44664;SDS011;30382;48.802;9.388;2023-04-25T11:52:10;3.40;;;3.10;;
44664;SDS011;30382;48.802;9.388;2023-04-25T11:54:56;3.17;;;2.50;;
44664;SDS011;30382;48.802;9.388;2023-04-25T11:57:44;2.97;;;2.43;;
44664;SDS011;30382;48.802;9.388;2023-04-25T12:14:27;5.23;;;2.80;;
44664;SDS011;30382;48.802;9.388;2023-04-25T12:20:38;3.10;;;2.80;;
44664;SDS011;30382;48.802;9.388;2023-04-25T12:23:38;5.50;;;2.83;;
44664;SDS011;30382;48.802;9.388;2023-04-25T12:26:46;2.93;;;2.73;;
44664;SDS011;30382;48.802;9.388;2023-04-25T12:30:13;2.20;;;2.03;;
44664;SDS011;30382;48.802;9.388;2023-04-25T12:33:01;2.83;;;2.63;;
44664;SDS011;30382;48.802;9.388;2023-04-25T12:35:55;2.60;;;2.40;;
44664;SDS011;30382;48.802;9.388;2023-04-25T12:44:04;3.40;;;3.10;;
44664;SDS011;30382;48.802;9.388;2023-04-25T12:54:42;2.95;;;2.65;;
44664;SDS011;30382;48.802;9.388;2023-04-25T12:58:40;3.58;;;3.00;;
44664;SDS011;30382;48.802;9.388;2023-04-25T13:09:19;4.22;;;3.83;;
44664;SDS011;30382;48.802;9.388;2023-04-25T13:12:55;4.82;;;4.43;;
44664;SDS011;30382;48.802;9.388;2023-04-25T13:16:08;4.20;;;3.80;;
44664;SDS011;30382;48.802;9.388;2023-04-25T13:28:14;4.03;;;3.72;;
44664;SDS011;30382;48.802;9.388;2023-04-25T13:48:46;5.30;;;4.90;;
44664;SDS011;30382;48.802;9.388;2023-04-25T14:18:42;6.90;;;6.30;;
44664;SDS011;30382;48.802;9.388;2023-04-25T14:21:26;6.75;;;6.07;;
44664;SDS011;30382;48.802;9.388;2023-04-25T14:24:11;7.33;;;6.53;;
44664;SDS011;30382;48.802;9.388;2023-04-25T14:26:55;7.93;;;7.10;;
44664;SDS011;30382;48.802;9.388;2023-04-25T14:29:40;8.20;;;7.40;;
44664;SDS011;30382;48.802;9.388;2023-04-25T14:32:24;8.80;;;7.47;;
44664;SDS011;30382;48.802;9.388;2023-04-25T14:35:08;7.13;;;6.43;;
44664;SDS011;30382;48.802;9.388;2023-04-25T14:37:53;7.70;;;7.00;;
44664;SDS011;30382;48.802;9.388;2023-04-25T14:40:38;7.50;;;6.80;;
44664;SDS011;30382;48.802;9.388;2023-04-25T14:43:22;8.05;;;7.35;;
44664;SDS011;30382;48.802;9.388;2023-04-25T14:46:06;8.00;;;7.30;;
44664;SDS011;30382;48.802;9.388;2023-04-25T14:48:50;9.07;;;6.95;;
44664;SDS011;30382;48.802;9.388;2023-04-25T14:51:35;9.20;;;7.10;;
44664;SDS011;30382;48.802;9.388;2023-04-25T14:54:19;7.13;;;6.40;;
44664;SDS011;30382;48.802;9.388;2023-04-25T14:57:03;7.60;;;6.90;;
44664;SDS011;30382;48.802;9.388;2023-04-25T14:59:48;8.10;;;7.40;;
44664;SDS011;30382;48.802;9.388;2023-04-25T15:02:32;7.17;;;6.57;;
44664;SDS011;30382;48.802;9.388;2023-04-25T15:05:16;7.57;;;6.87;;
44664;SDS011;30382;48.802;9.388;2023-04-25T15:08:01;8.20;;;6.50;;
44664;SDS011;30382;48.802;9.388;2023-04-25T15:10:46;7.97;;;7.18;;
44664;SDS011;30382;48.802;9.388;2023-04-25T15:13:30;7.10;;;6.40;;
44664;SDS011;30382;48.802;9.388;2023-04-25T15:16:14;6.75;;;6.15;;
44664;SDS011;30382;48.802;9.388;2023-04-25T15:18:59;7.35;;;6.65;;
44664;SDS011;30382;48.802;9.388;2023-04-25T15:21:43;6.82;;;6.13;;
44664;SDS011;30382;48.802;9.388;2023-04-25T15:24:27;6.55;;;5.95;;
44664;SDS011;30382;48.802;9.388;2023-04-25T15:27:13;7.28;;;6.57;;
44664;SDS011;30382;48.802;9.388;2023-04-25T15:29:57;7.07;;;6.37;;
44664;SDS011;30382;48.802;9.388;2023-04-25T15:32:42;7.30;;;6.60;;
44664;SDS011;30382;48.802;9.388;2023-04-25T15:35:26;7.07;;;6.10;;
44664;SDS011;30382;48.802;9.388;2023-04-25T15:38:10;10.30;;;8.77;;
44664;SDS011;30382;48.802;9.388;2023-04-25T15:40:55;7.05;;;5.70;;
44664;SDS011;30382;48.802;9.388;2023-04-25T15:43:40;6.40;;;5.47;;
44664;SDS011;30382;48.802;9.388;2023-04-25T15:46:24;5.57;;;4.90;;
44664;SDS011;30382;48.802;9.388;2023-04-25T15:49:10;6.25;;;4.88;;
44664;SDS011;30382;48.802;9.388;2023-04-25T15:51:55;5.25;;;4.72;;
44664;SDS011;30382;48.802;9.388;2023-04-25T15:54:39;5.28;;;4.78;;
44664;SDS011;30382;48.802;9.388;2023-04-25T15:57:23;7.25;;;5.10;;
44664;SDS011;30382;48.802;9.388;2023-04-25T16:00:08;5.90;;;5.30;;
44664;SDS011;30382;48.802;9.388;2023-04-25T16:02:56;6.97;;;6.25;;
44664;SDS011;30382;48.802;9.388;2023-04-25T16:05:40;5.88;;;5.30;;
44664;SDS011;30382;48.802;9.388;2023-04-25T16:08:25;5.97;;;5.43;;
44664;SDS011;30382;48.802;9.388;2023-04-25T16:11:12;8.00;;;6.20;;
44664;SDS011;30382;48.802;9.388;2023-04-25T16:13:57;7.63;;;6.20;;
44664;SDS011;30382;48.802;9.388;2023-04-25T16:16:42;8.27;;;6.07;;
44664;SDS011;30382;48.802;9.388;2023-04-25T16:19:27;7.20;;;6.50;;
44664;SDS011;30382;48.802;9.388;2023-04-25T16:22:12;8.40;;;6.60;;
44664;SDS011;30382;48.802;9.388;2023-04-25T16:24:59;7.32;;;5.93;;
44664;SDS011;30382;48.802;9.388;2023-04-25T16:27:43;8.13;;;5.90;;
44664;SDS011;30382;48.802;9.388;2023-04-25T16:30:28;7.03;;;6.33;;
44664;SDS011;30382;48.802;9.388;2023-04-25T16:33:13;6.43;;;5.83;;
44664;SDS011;30382;48.802;9.388;2023-04-25T16:35:58;7.55;;;6.40;;
44664;SDS011;30382;48.802;9.388;2023-04-25T16:38:42;7.15;;;6.47;;
44664;SDS011;30382;48.802;9.388;2023-04-25T16:41:28;6.75;;;6.15;;
44664;SDS011;30382;48.802;9.388;2023-04-25T16:44:13;6.80;;;6.20;;
44664;SDS011;30382;48.802;9.388;2023-04-25T16:47:00;7.63;;;6.80;;
44664;SDS011;30382;48.802;9.388;2023-04-25T16:49:45;7.50;;;6.72;;
44664;SDS011;30382;48.802;9.388;2023-04-25T16:52:30;9.50;;;7.20;;
44664;SDS011;30382;48.802;9.388;2023-04-25T16:55:14;7.50;;;6.80;;
44664;SDS011;30382;48.802;9.388;2023-04-25T16:57:59;8.10;;;7.25;;
44664;SDS011;30382;48.802;9.388;2023-04-25T17:00:44;8.10;;;6.95;;
44664;SDS011;30382;48.802;9.388;2023-04-25T17:03:29;7.50;;;6.80;;
44664;SDS011;30382;48.802;9.388;2023-04-25T17:06:15;7.20;;;6.50;;
44664;SDS011;30382;48.802;9.388;2023-04-25T17:09:00;8.25;;;6.80;;
44664;SDS011;30382;48.802;9.388;2023-04-25T17:11:45;8.20;;;7.40;;
44664;SDS011;30382;48.802;9.388;2023-04-25T17:14:29;7.70;;;7.00;;
44664;SDS011;30382;48.802;9.388;2023-04-25T17:17:16;9.02;;;7.20;;
44664;SDS011;30382;48.802;9.388;2023-04-25T17:20:02;8.00;;;6.80;;
44664;SDS011;30382;48.802;9.388;2023-04-25T17:22:48;8.35;;;7.15;;
44664;SDS011;30382;48.802;9.388;2023-04-25T17:25:33;8.68;;;6.85;;
44664;SDS011;30382;48.802;9.388;2023-04-25T17:28:17;8.97;;;7.23;;
44664;SDS011;30382;48.802;9.388;2023-04-25T17:31:02;9.70;;;7.50;;
44664;SDS011;30382;48.802;9.388;2023-04-25T17:33:48;8.67;;;7.33;;
44664;SDS011;30382;48.802;9.388;2023-04-25T17:36:32;8.52;;;7.20;;
44664;SDS011;30382;48.802;9.388;2023-04-25T17:39:17;12.10;;;8.13;;
44664;SDS011;30382;48.802;9.388;2023-04-25T17:42:02;8.85;;;7.88;;
44664;SDS011;30382;48.802;9.388;2023-04-25T17:44:47;9.67;;;8.23;;
44664;SDS011;30382;48.802;9.388;2023-04-25T17:47:31;10.18;;;7.93;;
44664;SDS011;30382;48.802;9.388;2023-04-25T17:50:15;8.88;;;7.63;;
44664;SDS011;30382;48.802;9.388;2023-04-25T17:53:00;10.27;;;7.95;;
44664;SDS011;30382;48.802;9.388;2023-04-25T17:55:46;8.85;;;7.95;;
44664;SDS011;30382;48.802;9.388;2023-04-25T17:58:33;9.18;;;7.32;;
44664;SDS011;30382;48.802;9.388;2023-04-25T18:01:17;9.90;;;7.60;;
44664;SDS011;30382;48.802;9.388;2023-04-25T18:04:02;10.43;;;7.95;;
44664;SDS011;30382;48.802;9.388;2023-04-25T18:06:47;11.23;;;7.45;;
44664;SDS011;30382;48.802;9.388;2023-04-25T18:09:32;8.38;;;6.80;;
44664;SDS011;30382;48.802;9.388;2023-04-25T18:12:17;8.30;;;7.10;;
44664;SDS011;30382;48.802;9.388;2023-04-25T18:15:01;7.75;;;6.95;;
44664;SDS011;30382;48.802;9.388;2023-04-25T18:17:49;8.32;;;7.20;;
44664;SDS011;30382;48.802;9.388;2023-04-25T18:20:34;7.35;;;6.43;;
44664;SDS011;30382;48.802;9.388;2023-04-25T18:23:18;7.82;;;7.13;;
44664;SDS011;30382;48.802;9.388;2023-04-25T18:26:03;7.63;;;6.82;;
44664;SDS011;30382;48.802;9.388;2023-04-25T18:28:48;8.53;;;7.63;;
44664;SDS011;30382;48.802;9.388;2023-04-25T18:31:32;7.95;;;6.45;;
44664;SDS011;30382;48.802;9.388;2023-04-25T18:34:18;8.45;;;6.90;;
44664;SDS011;30382;48.802;9.388;2023-04-25T18:37:05;8.32;;;6.70;;
44664;SDS011;30382;48.802;9.388;2023-04-25T18:39:50;8.82;;;6.90;;
44664;SDS011;30382;48.802;9.388;2023-04-25T18:42:35;9.23;;;6.73;;
44664;SDS011;30382;48.802;9.388;2023-04-25T18:45:21;11.67;;;9.37;;
44664;SDS011;30382;48.802;9.388;2023-04-25T18:48:05;9.27;;;7.10;;
44664;SDS011;30382;48.802;9.388;2023-04-25T18:50:50;8.27;;;6.75;;
44664;SDS011;30382;48.802;9.388;2023-04-25T18:53:34;8.27;;;7.47;;
44664;SDS011;30382;48.802;9.388;2023-04-25T18:56:20;6.93;;;6.00;;
44664;SDS011;30382;48.802;9.388;2023-04-25T18:59:07;8.40;;;6.20;;
44664;SDS011;30382;48.802;9.388;2023-04-25T19:01:52;9.20;;;7.00;;
44664;SDS011;30382;48.802;9.388;2023-04-25T19:04:36;6.37;;;5.73;;
44664;SDS011;30382;48.802;9.388;2023-04-25T19:07:20;7.60;;;6.53;;
44664;SDS011;30382;48.802;9.388;2023-04-25T19:10:06;6.53;;;5.90;;
44664;SDS011;30382;48.802;9.388;2023-04-25T19:12:51;6.97;;;5.57;;
44664;SDS011;30382;48.802;9.388;2023-04-25T19:15:35;6.82;;;6.10;;
44664;SDS011;30382;48.802;9.388;2023-04-25T19:18:21;6.38;;;5.78;;
44664;SDS011;30382;48.802;9.388;2023-04-25T19:21:06;7.35;;;6.63;;
44664;SDS011;30382;48.802;9.388;2023-04-25T19:23:51;8.15;;;7.35;;
44664;SDS011;30382;48.802;9.388;2023-04-25T19:26:37;8.20;;;7.05;;
44664;SDS011;30382;48.802;9.388;2023-04-25T19:29:21;8.35;;;6.90;;
44664;SDS011;30382;48.802;9.388;2023-04-25T19:32:05;11.00;;;8.60;;
44664;SDS011;30382;48.802;9.388;2023-04-25T19:34:50;8.90;;;7.38;;
44664;SDS011;30382;48.802;9.388;2023-04-25T19:37:35;10.57;;;9.07;;
44664;SDS011;30382;48.802;9.388;2023-04-25T19:40:20;10.05;;;7.97;;
44664;SDS011;30382;48.802;9.388;2023-04-25T19:43:07;9.03;;;7.20;;
44664;SDS011;30382;48.802;9.388;2023-04-25T19:45:52;9.32;;;8.40;;
44664;SDS011;30382;48.802;9.388;2023-04-25T19:48:37;9.05;;;8.07;;
44664;SDS011;30382;48.802;9.388;2023-04-25T19:51:22;8.50;;;7.10;;
44664;SDS011;30382;48.802;9.388;2023-04-25T19:54:07;9.07;;;7.13;;
44664;SDS011;30382;48.802;9.388;2023-04-25T19:56:52;6.82;;;6.22;;
44664;SDS011;30382;48.802;9.388;2023-04-25T19:59:37;7.53;;;6.65;;
44664;SDS011;30382;48.802;9.388;2023-04-25T20:02:21;8.25;;;7.45;;
44664;SDS011;30382;48.802;9.388;2023-04-25T20:05:06;8.03;;;7.23;;
44664;SDS011;30382;48.802;9.388;2023-04-25T20:07:51;6.90;;;6.20;;
44664;SDS011;30382;48.802;9.388;2023-04-25T20:10:35;8.43;;;6.82;;
44664;SDS011;30382;48.802;9.388;2023-04-25T20:13:20;8.43;;;7.00;;
44664;SDS011;30382;48.802;9.388;2023-04-25T21:04:38;9.55;;;8.55;;
